createdAt,value
2023-02-14T00:00:49.748Z,1033.06
2023-02-14T00:01:49.728Z,1033.00
2023-02-14T00:02:50.481Z,1033.10
2023-02-14T00:03:53.363Z,1033.04
2023-02-14T00:04:51.408Z,1033.05
2023-02-14T00:05:50.635Z,1033.10
2023-02-14T00:06:49.666Z,1033.12
2023-02-14T00:07:49.910Z,1033.12
2023-02-14T00:08:49.642Z,1033.07
2023-02-14T00:09:50.331Z,1033.05
2023-02-14T00:10:49.623Z,1032.98
2023-02-14T00:11:49.598Z,1033.04
2023-02-14T00:12:49.588Z,1033.01
2023-02-14T00:13:49.577Z,1032.97
2023-02-14T00:14:49.792Z,1033.05
2023-02-14T00:15:49.830Z,1033.01
2023-02-14T00:16:49.833Z,1032.98
2023-02-14T00:17:49.765Z,1032.97
2023-02-14T00:18:49.527Z,1032.97
2023-02-14T00:19:49.498Z,1032.93
2023-02-14T00:20:49.475Z,1032.94
2023-02-14T00:21:49.493Z,1032.96
2023-02-14T00:22:54.361Z,1033.06
2023-02-14T00:23:54.277Z,1032.97
2023-02-14T00:24:49.726Z,1032.95
2023-02-14T00:25:49.425Z,1032.94
2023-02-14T00:26:49.398Z,1032.98
2023-02-14T00:27:49.657Z,1032.93
2023-02-14T00:28:49.427Z,1032.94
2023-02-14T00:29:49.402Z,1032.91
2023-02-14T00:30:49.407Z,1032.90
2023-02-14T00:31:49.439Z,1032.96
2023-02-14T00:32:49.332Z,1033.00
2023-02-14T00:33:49.318Z,1032.91
2023-02-14T00:34:50.059Z,1033.05
2023-02-14T00:35:49.298Z,1033.06
2023-02-14T00:36:49.288Z,1033.02
2023-02-14T00:37:53.168Z,1033.00
2023-02-14T00:38:49.300Z,1032.98
2023-02-14T00:39:49.239Z,1032.97
2023-02-14T00:40:49.259Z,1033.00
2023-02-14T00:41:50.178Z,1033.00
2023-02-14T00:42:49.209Z,1033.04
2023-02-14T00:43:49.216Z,1033.04
2023-02-14T00:44:49.194Z,1032.99
2023-02-14T00:45:49.205Z,1033.05
2023-02-14T00:46:49.190Z,1032.99
2023-02-14T00:47:49.171Z,1033.01
2023-02-14T00:48:49.141Z,1033.02
2023-02-14T00:49:49.381Z,1033.03
2023-02-14T00:50:49.122Z,1032.97
2023-02-14T00:51:49.101Z,1032.95
2023-02-14T00:52:49.123Z,1032.95
2023-02-14T00:53:49.077Z,1032.92
2023-02-14T00:54:49.061Z,1032.91
2023-02-14T00:55:49.060Z,1032.96
2023-02-14T00:56:49.036Z,1032.91
2023-02-14T00:57:49.037Z,1032.93
2023-02-14T00:58:49.033Z,1032.95
2023-02-14T00:59:49.002Z,1033.05
2023-02-14T01:00:49.306Z,1033.03
2023-02-14T01:01:48.984Z,1033.01
2023-02-14T01:02:49.291Z,1032.97
2023-02-14T01:03:48.953Z,1032.99
2023-02-14T01:04:52.623Z,1032.97
2023-02-14T01:05:48.945Z,1033.06
2023-02-14T01:06:49.869Z,1033.03
2023-02-14T01:07:48.921Z,1033.04
2023-02-14T01:08:48.952Z,1033.05
2023-02-14T01:09:49.593Z,1033.09
2023-02-14T01:10:48.886Z,1033.08
2023-02-14T01:11:48.863Z,1033.17
2023-02-14T01:12:48.836Z,1033.06
2023-02-14T01:13:48.830Z,1033.12
2023-02-14T01:14:48.807Z,1033.12
2023-02-14T01:15:48.805Z,1033.06
2023-02-14T01:16:49.109Z,1033.08
2023-02-14T01:17:48.776Z,1033.06
2023-02-14T01:18:48.778Z,1033.07
2023-02-14T01:19:48.766Z,1033.12
2023-02-14T01:20:48.757Z,1033.04
2023-02-14T01:21:48.974Z,1033.11
2023-02-14T01:22:48.749Z,1033.09
2023-02-14T01:23:48.699Z,1033.12
2023-02-14T01:24:48.699Z,1033.07
2023-02-14T01:25:48.680Z,1033.09
2023-02-14T01:26:48.690Z,1033.14
2023-02-14T01:27:48.668Z,1033.11
2023-02-14T01:28:48.669Z,1033.11
2023-02-14T01:29:48.689Z,1033.14
2023-02-14T01:30:48.653Z,1033.05
2023-02-14T01:31:48.604Z,1033.15
2023-02-14T01:32:48.607Z,1033.13
2023-02-14T01:33:48.591Z,1033.09
2023-02-14T01:34:48.599Z,1033.19
2023-02-14T01:35:49.262Z,1033.15
2023-02-14T01:36:48.541Z,1033.13
2023-02-14T01:37:49.328Z,1033.12
2023-02-14T01:38:48.531Z,1033.12
2023-02-14T01:39:48.503Z,1033.07
2023-02-14T01:40:48.541Z,1033.11
2023-02-14T01:41:49.446Z,1033.10
2023-02-14T01:42:48.484Z,1033.07
2023-02-14T01:43:48.474Z,1033.04
2023-02-14T01:44:48.466Z,1033.09
2023-02-14T01:45:48.459Z,1033.08
2023-02-14T01:46:48.460Z,1033.14
2023-02-14T01:47:48.431Z,1033.10
2023-02-14T01:48:48.418Z,1033.14
2023-02-14T01:49:48.387Z,1032.99
2023-02-14T01:50:48.376Z,1033.02
2023-02-14T01:51:48.385Z,1032.98
2023-02-14T01:52:48.377Z,1032.99
2023-02-14T01:53:48.347Z,1033.01
2023-02-14T01:54:49.284Z,1033.00
2023-02-14T01:55:48.563Z,1033.03
2023-02-14T01:56:48.307Z,1033.04
2023-02-14T01:57:48.324Z,1033.03
2023-02-14T01:58:48.318Z,1032.97
2023-02-14T01:59:48.269Z,1033.05
2023-02-14T02:00:48.533Z,1032.93
2023-02-14T02:01:48.234Z,1032.93
2023-02-14T02:02:48.232Z,1032.96
2023-02-14T02:03:48.232Z,1032.92
2023-02-14T02:04:48.223Z,1032.99
2023-02-14T02:05:48.208Z,1032.93
2023-02-14T02:06:48.184Z,1033.00
2023-02-14T02:07:48.177Z,1032.89
2023-02-14T02:08:48.168Z,1032.94
2023-02-14T02:09:48.145Z,1032.96
2023-02-14T02:10:48.162Z,1033.01
2023-02-14T02:11:48.125Z,1032.92
2023-02-14T02:12:48.114Z,1032.95
2023-02-14T02:13:48.105Z,1032.96
2023-02-14T02:14:48.085Z,1032.88
2023-02-14T02:15:48.072Z,1032.93
2023-02-14T02:16:48.143Z,1032.93
2023-02-14T02:17:48.057Z,1032.93
2023-02-14T02:18:48.036Z,1032.90
2023-02-14T02:19:48.705Z,1032.92
2023-02-14T02:20:48.025Z,1032.89
2023-02-14T02:21:48.257Z,1032.90
2023-02-14T02:22:48.017Z,1032.97
2023-02-14T02:23:47.971Z,1032.88
2023-02-14T02:24:47.957Z,1032.88
2023-02-14T02:25:47.957Z,1032.82
2023-02-14T02:26:47.949Z,1032.91
2023-02-14T02:27:47.923Z,1032.90
2023-02-14T02:28:48.889Z,1032.87
2023-02-14T02:29:47.917Z,1032.81
2023-02-14T02:30:48.043Z,1032.88
2023-02-14T02:31:48.008Z,1032.76
2023-02-14T02:32:47.863Z,1032.78
2023-02-14T02:33:47.870Z,1032.85
2023-02-14T02:34:47.873Z,1032.74
2023-02-14T02:35:47.850Z,1032.78
2023-02-14T02:36:47.821Z,1032.75
2023-02-14T02:37:47.801Z,1032.75
2023-02-14T02:38:47.796Z,1032.83
2023-02-14T02:39:47.784Z,1032.72
2023-02-14T02:40:47.784Z,1032.77
2023-02-14T02:41:47.766Z,1032.66
2023-02-14T02:42:47.766Z,1032.67
2023-02-14T02:43:47.973Z,1032.66
2023-02-14T02:44:47.717Z,1032.72
2023-02-14T02:45:47.750Z,1032.66
2023-02-14T02:46:47.750Z,1032.67
2023-02-14T02:47:47.666Z,1032.67
2023-02-14T02:48:47.662Z,1032.63
2023-02-14T02:49:47.670Z,1032.70
2023-02-14T02:50:47.649Z,1032.68
2023-02-14T02:51:47.635Z,1032.61
2023-02-14T02:52:47.625Z,1032.57
2023-02-14T02:53:47.604Z,1032.57
2023-02-14T02:54:47.594Z,1032.63
2023-02-14T02:55:47.594Z,1032.61
2023-02-14T02:56:47.569Z,1032.59
2023-02-14T02:57:47.566Z,1032.58
2023-02-14T02:58:47.583Z,1032.59
2023-02-14T02:59:47.538Z,1032.60
2023-02-14T03:00:47.527Z,1032.60
2023-02-14T03:01:47.533Z,1032.54
2023-02-14T03:02:47.497Z,1032.57
2023-02-14T03:03:47.725Z,1032.56
2023-02-14T03:04:47.564Z,1032.53
2023-02-14T03:05:48.417Z,1032.66
2023-02-14T03:06:47.465Z,1032.58
2023-02-14T03:07:47.691Z,1032.54
2023-02-14T03:08:51.216Z,1032.57
2023-02-14T03:09:47.429Z,1032.57
2023-02-14T03:10:47.420Z,1032.47
2023-02-14T03:11:47.389Z,1032.62
2023-02-14T03:12:47.641Z,1032.64
2023-02-14T03:13:47.361Z,1032.55
2023-02-14T03:14:47.358Z,1032.60
2023-02-14T03:15:47.359Z,1032.58
2023-02-14T03:16:47.348Z,1032.54
2023-02-14T03:17:47.320Z,1032.47
2023-02-14T03:18:47.299Z,1032.45
2023-02-14T03:19:47.300Z,1032.45
2023-02-14T03:20:47.271Z,1032.51
2023-02-14T03:21:47.262Z,1032.46
2023-02-14T03:22:47.275Z,1032.39
2023-02-14T03:23:47.255Z,1032.44
2023-02-14T03:24:47.516Z,1032.53
2023-02-14T03:25:47.224Z,1032.42
2023-02-14T03:26:47.214Z,1032.47
2023-02-14T03:27:47.214Z,1032.47
2023-02-14T03:28:48.183Z,1032.36
2023-02-14T03:29:47.236Z,1032.52
2023-02-14T03:30:47.262Z,1032.47
2023-02-14T03:31:47.514Z,1032.34
2023-02-14T03:32:47.128Z,1032.44
2023-02-14T03:33:47.121Z,1032.34
2023-02-14T03:34:47.155Z,1032.34
2023-02-14T03:35:47.097Z,1032.36
2023-02-14T03:36:47.086Z,1032.33
2023-02-14T03:37:47.068Z,1032.36
2023-02-14T03:38:47.065Z,1032.31
2023-02-14T03:39:48.739Z,1032.33
2023-02-14T03:40:47.047Z,1032.38
2023-02-14T03:41:47.027Z,1032.40
2023-02-14T03:42:47.016Z,1032.37
2023-02-14T03:43:47.034Z,1032.34
2023-02-14T03:44:47.028Z,1032.42
2023-02-14T03:45:46.982Z,1032.33
2023-02-14T03:46:47.026Z,1032.36
2023-02-14T03:47:47.915Z,1032.28
2023-02-14T03:48:46.940Z,1032.29
2023-02-14T03:49:46.928Z,1032.28
2023-02-14T03:50:46.915Z,1032.34
2023-02-14T03:51:46.906Z,1032.21
2023-02-14T03:52:46.926Z,1032.22
2023-02-14T03:53:47.841Z,1032.30
2023-02-14T03:54:47.118Z,1032.27
2023-02-14T03:55:46.854Z,1032.19
2023-02-14T03:56:46.831Z,1032.27
2023-02-14T03:57:47.791Z,1032.26
2023-02-14T03:58:47.794Z,1032.31
2023-02-14T03:59:46.810Z,1032.27
2023-02-14T04:00:46.801Z,1032.21
2023-02-14T04:01:46.858Z,1032.22
2023-02-14T04:02:46.759Z,1032.29
2023-02-14T04:03:47.745Z,1032.23
2023-02-14T04:04:46.771Z,1032.28
2023-02-14T04:05:46.782Z,1032.26
2023-02-14T04:06:47.678Z,1032.34
2023-02-14T04:07:46.713Z,1032.22
2023-02-14T04:08:46.692Z,1032.36
2023-02-14T04:09:46.664Z,1032.34
2023-02-14T04:10:48.350Z,1032.30
2023-02-14T04:11:46.658Z,1032.35
2023-02-14T04:12:46.633Z,1032.37
2023-02-14T04:13:46.637Z,1032.26
2023-02-14T04:14:46.603Z,1032.35
2023-02-14T04:15:46.686Z,1032.34
2023-02-14T04:16:46.622Z,1032.27
2023-02-14T04:17:47.524Z,1032.30
2023-02-14T04:18:46.827Z,1032.30
2023-02-14T04:19:46.553Z,1032.41
2023-02-14T04:20:46.543Z,1032.39
2023-02-14T04:21:46.526Z,1032.29
2023-02-14T04:22:46.557Z,1032.38
2023-02-14T04:23:46.496Z,1032.33
2023-02-14T04:24:46.733Z,1032.32
2023-02-14T04:25:46.477Z,1032.37
2023-02-14T04:26:46.460Z,1032.31
2023-02-14T04:27:46.458Z,1032.31
2023-02-14T04:28:46.466Z,1032.45
2023-02-14T04:29:46.441Z,1032.39
2023-02-14T04:30:46.412Z,1032.37
2023-02-14T04:31:46.732Z,1032.32
2023-02-14T04:32:47.990Z,1032.33
2023-02-14T04:33:46.377Z,1032.34
2023-02-14T04:34:46.407Z,1032.37
2023-02-14T04:35:47.312Z,1032.40
2023-02-14T04:36:46.345Z,1032.42
2023-02-14T04:37:46.588Z,1032.27
2023-02-14T04:38:46.317Z,1032.27
2023-02-14T04:39:46.571Z,1032.31
2023-02-14T04:40:46.316Z,1032.36
2023-02-14T04:41:47.231Z,1032.30
2023-02-14T04:42:46.272Z,1032.24
2023-02-14T04:43:46.247Z,1032.28
2023-02-14T04:44:46.502Z,1032.28
2023-02-14T04:45:46.231Z,1032.24
2023-02-14T04:46:46.311Z,1032.29
2023-02-14T04:47:46.481Z,1032.19
2023-02-14T04:48:46.222Z,1032.26
2023-02-14T04:49:46.179Z,1032.22
2023-02-14T04:50:46.394Z,1032.23
2023-02-14T04:51:46.146Z,1032.18
2023-02-14T04:52:46.149Z,1032.18
2023-02-14T04:53:49.850Z,1032.24
2023-02-14T04:54:46.111Z,1032.16
2023-02-14T04:55:46.100Z,1032.18
2023-02-14T04:56:46.097Z,1032.20
2023-02-14T04:57:46.099Z,1032.10
2023-02-14T04:58:46.100Z,1032.08
2023-02-14T04:59:46.771Z,1032.09
2023-02-14T05:00:46.055Z,1032.09
2023-02-14T05:01:46.065Z,1032.09
2023-02-14T05:02:46.017Z,1032.09
2023-02-14T05:03:46.000Z,1032.07
2023-02-14T05:04:47.165Z,1032.06
2023-02-14T05:05:47.185Z,1032.06
2023-02-14T05:06:45.975Z,1032.02
2023-02-14T05:07:45.963Z,1032.03
2023-02-14T05:08:45.940Z,1032.03
2023-02-14T05:09:45.930Z,1032.11
2023-02-14T05:10:45.926Z,1032.01
2023-02-14T05:11:45.919Z,1031.97
2023-02-14T05:12:45.894Z,1032.02
2023-02-14T05:13:45.900Z,1031.93
2023-02-14T05:14:45.884Z,1031.86
2023-02-14T05:15:45.873Z,1031.89
2023-02-14T05:16:45.913Z,1031.89
2023-02-14T05:17:45.850Z,1031.96
2023-02-14T05:18:45.830Z,1031.90
2023-02-14T05:19:46.067Z,1031.88
2023-02-14T05:20:45.797Z,1031.92
2023-02-14T05:21:45.797Z,1031.94
2023-02-14T05:22:45.801Z,1031.88
2023-02-14T05:23:45.780Z,1031.99
2023-02-14T05:24:45.765Z,1031.92
2023-02-14T05:25:45.753Z,1031.94
2023-02-14T05:26:45.961Z,1031.94
2023-02-14T05:27:45.713Z,1031.91
2023-02-14T05:28:45.744Z,1031.92
2023-02-14T05:29:45.732Z,1031.96
2023-02-14T05:30:45.803Z,1031.97
2023-02-14T05:31:46.893Z,1031.94
2023-02-14T05:32:45.645Z,1031.99
2023-02-14T05:33:45.637Z,1032.00
2023-02-14T05:34:45.647Z,1031.98
2023-02-14T05:35:45.631Z,1031.98
2023-02-14T05:36:45.613Z,1032.08
2023-02-14T05:37:45.588Z,1032.02
2023-02-14T05:38:45.594Z,1032.07
2023-02-14T05:39:45.570Z,1032.13
2023-02-14T05:40:46.530Z,1032.07
2023-02-14T05:41:45.537Z,1032.04
2023-02-14T05:42:45.529Z,1032.08
2023-02-14T05:43:46.348Z,1032.04
2023-02-14T05:44:46.458Z,1032.02
2023-02-14T05:45:45.545Z,1032.02
2023-02-14T05:46:45.590Z,1032.06
2023-02-14T05:47:45.472Z,1032.02
2023-02-14T05:48:45.462Z,1031.98
2023-02-14T05:49:45.479Z,1032.05
2023-02-14T05:50:45.432Z,1032.08
2023-02-14T05:51:45.423Z,1032.13
2023-02-14T05:52:45.438Z,1032.04
2023-02-14T05:53:45.410Z,1032.02
2023-02-14T05:54:45.643Z,1032.03
2023-02-14T05:55:49.264Z,1032.05
2023-02-14T05:56:45.368Z,1032.02
2023-02-14T05:57:45.357Z,1032.01
2023-02-14T05:58:45.358Z,1031.99
2023-02-14T05:59:45.344Z,1032.00
2023-02-14T06:00:45.298Z,1032.05
2023-02-14T06:01:45.341Z,1031.99
2023-02-14T06:02:45.294Z,1032.07
2023-02-14T06:03:45.281Z,1031.99
2023-02-14T06:04:45.384Z,1032.01
2023-02-14T06:05:45.279Z,1032.07
2023-02-14T06:06:45.255Z,1032.04
2023-02-14T06:07:45.231Z,1032.08
2023-02-14T06:08:45.233Z,1032.04
2023-02-14T06:09:45.211Z,1032.10
2023-02-14T06:10:45.201Z,1032.08
2023-02-14T06:11:45.181Z,1032.05
2023-02-14T06:12:45.398Z,1032.10
2023-02-14T06:13:45.142Z,1032.19
2023-02-14T06:14:45.212Z,1032.18
2023-02-14T06:15:45.134Z,1032.14
2023-02-14T06:16:45.265Z,1032.19
2023-02-14T06:17:45.127Z,1032.15
2023-02-14T06:18:46.048Z,1032.16
2023-02-14T06:19:45.074Z,1032.22
2023-02-14T06:20:45.072Z,1032.20
2023-02-14T06:21:45.068Z,1032.19
2023-02-14T06:22:45.094Z,1032.20
2023-02-14T06:23:45.993Z,1032.26
2023-02-14T06:24:45.281Z,1032.17
2023-02-14T06:25:45.009Z,1032.24
2023-02-14T06:26:45.005Z,1032.24
2023-02-14T06:27:44.987Z,1032.21
2023-02-14T06:28:44.985Z,1032.21
2023-02-14T06:29:45.658Z,1032.23
2023-02-14T06:30:45.139Z,1032.21
2023-02-14T06:31:45.734Z,1032.19
2023-02-14T06:32:44.928Z,1032.21
2023-02-14T06:33:44.907Z,1032.21
2023-02-14T06:34:44.929Z,1032.26
2023-02-14T06:35:44.886Z,1032.30
2023-02-14T06:36:44.887Z,1032.24
2023-02-14T06:37:44.869Z,1032.21
2023-02-14T06:38:44.871Z,1032.24
2023-02-14T06:39:44.828Z,1032.23
2023-02-14T06:40:44.856Z,1032.19
2023-02-14T06:41:44.817Z,1032.19
2023-02-14T06:42:44.808Z,1032.21
2023-02-14T06:43:44.805Z,1032.15
2023-02-14T06:44:44.778Z,1032.23
2023-02-14T06:45:44.847Z,1032.30
2023-02-14T06:46:45.030Z,1032.30
2023-02-14T06:47:44.752Z,1032.16
2023-02-14T06:48:44.756Z,1032.23
2023-02-14T06:49:44.728Z,1032.29
2023-02-14T06:50:44.704Z,1032.31
2023-02-14T06:51:44.699Z,1032.23
2023-02-14T06:52:44.697Z,1032.19
2023-02-14T06:53:45.872Z,1032.29
2023-02-14T06:54:44.655Z,1032.18
2023-02-14T06:55:44.651Z,1032.24
2023-02-14T06:56:44.621Z,1032.25
2023-02-14T06:57:44.619Z,1032.26
2023-02-14T06:58:45.572Z,1032.26
2023-02-14T06:59:44.842Z,1032.30
2023-02-14T07:00:44.585Z,1032.28
2023-02-14T07:01:46.264Z,1032.35
2023-02-14T07:02:45.423Z,1032.42
2023-02-14T07:03:44.545Z,1032.33
2023-02-14T07:04:44.576Z,1032.31
2023-02-14T07:05:44.543Z,1032.31
2023-02-14T07:06:44.785Z,1032.33
2023-02-14T07:07:44.493Z,1032.32
2023-02-14T07:08:44.507Z,1032.36
2023-02-14T07:09:44.928Z,1032.32
2023-02-14T07:10:44.504Z,1032.36
2023-02-14T07:11:44.453Z,1032.42
2023-02-14T07:12:45.114Z,1032.35
2023-02-14T07:13:44.416Z,1032.39
2023-02-14T07:14:44.686Z,1032.39
2023-02-14T07:15:44.441Z,1032.28
2023-02-14T07:16:44.415Z,1032.35
2023-02-14T07:17:44.386Z,1032.31
2023-02-14T07:18:44.365Z,1032.29
2023-02-14T07:19:44.345Z,1032.34
2023-02-14T07:20:45.078Z,1032.25
2023-02-14T07:21:44.327Z,1032.34
2023-02-14T07:22:44.351Z,1032.37
2023-02-14T07:23:44.287Z,1032.32
2023-02-14T07:24:44.296Z,1032.43
2023-02-14T07:25:44.298Z,1032.34
2023-02-14T07:26:48.213Z,1032.40
2023-02-14T07:27:44.248Z,1032.30
2023-02-14T07:28:45.224Z,1032.37
2023-02-14T07:29:44.230Z,1032.31
2023-02-14T07:30:44.247Z,1032.29
2023-02-14T07:31:48.327Z,1032.36
2023-02-14T07:32:44.193Z,1032.37
2023-02-14T07:33:44.181Z,1032.37
2023-02-14T07:34:44.282Z,1032.40
2023-02-14T07:35:44.168Z,1032.39
2023-02-14T07:36:45.336Z,1032.41
2023-02-14T07:37:44.389Z,1032.38
2023-02-14T07:38:44.109Z,1032.33
2023-02-14T07:39:44.108Z,1032.37
2023-02-14T07:40:44.206Z,1032.37
2023-02-14T07:41:44.359Z,1032.37
2023-02-14T07:42:44.069Z,1032.35
2023-02-14T07:43:44.059Z,1032.38
2023-02-14T07:44:44.034Z,1032.37
2023-02-14T07:45:44.043Z,1032.32
2023-02-14T07:46:44.340Z,1032.34
2023-02-14T07:47:44.194Z,1032.28
2023-02-14T07:48:43.993Z,1032.32
2023-02-14T07:49:43.982Z,1032.29
2023-02-14T07:50:44.007Z,1032.21
2023-02-14T07:51:44.140Z,1032.29
2023-02-14T07:52:44.298Z,1032.20
2023-02-14T07:53:44.048Z,1032.29
2023-02-14T07:54:43.923Z,1032.20
2023-02-14T07:55:43.901Z,1032.14
2023-02-14T07:56:44.561Z,1032.26
2023-02-14T07:57:43.895Z,1032.19
2023-02-14T07:58:43.895Z,1032.21
2023-02-14T07:59:43.850Z,1032.17
2023-02-14T08:00:43.853Z,1032.11
2023-02-14T08:01:44.124Z,1032.15
2023-02-14T08:02:44.002Z,1032.19
2023-02-14T08:03:47.465Z,1032.13
2023-02-14T08:04:43.950Z,1032.13
2023-02-14T08:05:43.778Z,1032.13
2023-02-14T08:06:43.816Z,1032.12
2023-02-14T08:07:43.859Z,1032.10
2023-02-14T08:08:44.262Z,1032.10
2023-02-14T08:09:43.764Z,1032.13
2023-02-14T08:10:43.770Z,1032.17
2023-02-14T08:11:43.723Z,1032.17
2023-02-14T08:12:44.544Z,1032.13
2023-02-14T08:14:39.815Z,1032.19
2023-02-14T08:15:40.949Z,1032.10
2023-02-14T08:16:48.104Z,1032.07
2023-02-14T08:17:48.576Z,1032.06
2023-02-14T08:18:41.278Z,1032.05
2023-02-14T08:19:42.171Z,1032.04
2023-02-14T08:21:36.183Z,1032.06
2023-02-14T08:22:36.268Z,1032.07
2023-02-14T08:23:37.403Z,1032.13
2023-02-14T08:24:37.477Z,1032.15
2023-02-14T08:25:38.899Z,1032.13
2023-02-14T08:26:38.285Z,1032.20
2023-02-14T08:27:36.693Z,1032.10
2023-02-14T08:28:38.171Z,1032.18
2023-02-14T08:29:39.592Z,1032.11
2023-02-14T08:30:37.342Z,1032.15
2023-02-14T08:31:37.640Z,1032.11
2023-02-14T08:32:38.448Z,1032.13
2023-02-14T08:33:38.183Z,1032.18
2023-02-14T08:34:38.582Z,1032.17
2023-02-14T08:35:37.394Z,1032.12
2023-02-14T08:36:41.993Z,1032.12
2023-02-14T08:37:39.444Z,1032.17
2023-02-14T08:38:37.340Z,1032.14
2023-02-14T08:39:39.976Z,1032.15
2023-02-14T08:40:39.360Z,1032.15
2023-02-14T08:41:50.113Z,1032.13
2023-02-14T08:42:37.319Z,1032.16
2023-02-14T08:43:36.275Z,1032.20
2023-02-14T08:44:38.988Z,1032.18
2023-02-14T08:45:37.875Z,1032.18
2023-02-14T08:46:38.407Z,1032.20
2023-02-14T08:47:37.545Z,1032.24
2023-02-14T08:48:39.573Z,1032.17
2023-02-14T08:49:37.686Z,1032.22
2023-02-14T08:50:37.688Z,1032.20
2023-02-14T08:51:43.328Z,1032.13
2023-02-14T08:52:40.155Z,1032.18
2023-02-14T08:53:38.419Z,1032.17
2023-02-14T08:54:39.737Z,1032.03
2023-02-14T08:55:38.764Z,1032.10
2023-02-14T08:56:37.993Z,1032.08
2023-02-14T08:57:42.923Z,1032.15
2023-02-14T08:58:46.070Z,1032.09
2023-02-14T08:59:36.847Z,1032.04
2023-02-14T09:00:37.320Z,1032.05
2023-02-14T09:01:44.852Z,1032.02
2023-02-14T09:02:40.580Z,1031.99
2023-02-14T09:03:38.305Z,1032.01
2023-02-14T09:04:39.000Z,1031.96
2023-02-14T09:05:38.811Z,1032.01
2023-02-14T09:06:35.911Z,1031.94
2023-02-14T09:08:54.930Z,1031.91
2023-02-14T09:10:00.189Z,1031.88
2023-02-14T09:11:03.445Z,1031.82
2023-02-14T09:13:09.543Z,1031.91
2023-02-14T09:14:08.169Z,1031.86
2023-02-14T09:15:08.493Z,1031.86
2023-02-14T09:16:08.147Z,1031.85
2023-02-14T09:17:08.376Z,1031.81
2023-02-14T09:18:12.570Z,1031.82
2023-02-14T09:19:09.069Z,1031.84
2023-02-14T09:20:08.033Z,1031.89
2023-02-14T09:21:08.170Z,1031.83
2023-02-14T09:22:08.027Z,1031.84
2023-02-14T09:23:08.193Z,1031.87
2023-02-14T09:24:08.171Z,1031.79
2023-02-14T09:25:07.986Z,1031.84
2023-02-14T09:26:08.064Z,1031.84
2023-02-14T09:27:08.437Z,1031.79
2023-02-14T09:28:08.007Z,1031.74
2023-02-14T09:29:07.929Z,1031.86
2023-02-14T09:30:08.118Z,1031.81
2023-02-14T09:31:08.149Z,1031.85
2023-02-14T09:32:12.161Z,1031.85
2023-02-14T09:33:08.305Z,1031.72
2023-02-14T09:34:07.907Z,1031.81
2023-02-14T09:35:08.166Z,1031.79
2023-02-14T09:36:19.086Z,1031.81
2023-02-14T09:37:11.825Z,1031.77
2023-02-14T09:38:08.183Z,1031.76
2023-02-14T09:39:08.186Z,1031.77
2023-02-14T09:40:07.852Z,1031.81
2023-02-14T09:41:07.802Z,1031.76
2023-02-14T09:42:08.156Z,1031.79
2023-02-14T09:43:08.183Z,1031.76
2023-02-14T09:44:07.950Z,1031.79
2023-02-14T09:45:08.084Z,1031.70
2023-02-14T09:46:08.087Z,1031.74
2023-02-14T09:47:07.730Z,1031.72
2023-02-14T09:48:07.712Z,1031.77
2023-02-14T09:49:07.966Z,1031.68
2023-02-14T09:50:11.936Z,1031.71
2023-02-14T09:51:07.679Z,1031.68
2023-02-14T09:52:08.028Z,1031.67
2023-02-14T09:53:07.650Z,1031.69
2023-02-14T09:54:07.661Z,1031.69
2023-02-14T09:55:07.611Z,1031.67
2023-02-14T09:56:07.604Z,1031.73
2023-02-14T09:57:08.094Z,1031.67
2023-02-14T09:58:07.565Z,1031.64
2023-02-14T09:59:08.003Z,1031.69
2023-02-14T10:00:07.804Z,1031.64
2023-02-14T10:01:07.520Z,1031.68
2023-02-14T10:02:07.840Z,1031.65
2023-02-14T10:03:07.545Z,1031.67
2023-02-14T10:04:07.526Z,1031.67
2023-02-14T10:05:07.506Z,1031.67
2023-02-14T10:06:07.474Z,1031.63
2023-02-14T10:07:07.655Z,1031.63
2023-02-14T10:08:11.427Z,1031.59
2023-02-14T10:09:07.463Z,1031.65
2023-02-14T10:10:07.741Z,1031.71
2023-02-14T10:11:07.687Z,1031.59
2023-02-14T10:12:07.659Z,1031.57
2023-02-14T10:13:07.395Z,1031.57
2023-02-14T10:14:08.308Z,1031.54
2023-02-14T10:15:07.380Z,1031.54
2023-02-14T10:16:07.348Z,1031.50
2023-02-14T10:17:07.352Z,1031.53
2023-02-14T10:18:07.311Z,1031.54
2023-02-14T10:19:07.537Z,1031.52
2023-02-14T10:20:07.301Z,1031.58
2023-02-14T10:21:07.278Z,1031.52
2023-02-14T10:22:07.808Z,1031.53
2023-02-14T10:23:07.238Z,1031.53
2023-02-14T10:24:07.570Z,1031.57
2023-02-14T10:25:08.181Z,1031.51
2023-02-14T10:26:07.292Z,1031.54
2023-02-14T10:27:28.477Z,1031.48
2023-02-14T10:28:07.170Z,1031.48
2023-02-14T10:29:07.162Z,1031.50
2023-02-14T10:30:07.269Z,1031.46
2023-02-14T10:31:07.448Z,1031.45
2023-02-14T10:32:09.003Z,1031.50
2023-02-14T10:33:07.408Z,1031.56
2023-02-14T10:34:07.931Z,1031.48
2023-02-14T10:35:07.115Z,1031.50
2023-02-14T10:36:07.105Z,1031.47
2023-02-14T10:37:07.099Z,1031.48
2023-02-14T10:38:07.034Z,1031.50
2023-02-14T10:39:07.475Z,1031.46
2023-02-14T10:40:08.016Z,1031.43
2023-02-14T10:41:07.028Z,1031.48
2023-02-14T10:42:07.736Z,1031.40
2023-02-14T10:43:06.977Z,1031.34
2023-02-14T10:44:06.961Z,1031.29
2023-02-14T10:45:07.117Z,1031.29
2023-02-14T10:46:07.018Z,1031.31
2023-02-14T10:47:07.018Z,1031.32
2023-02-14T10:48:07.883Z,1031.27
2023-02-14T10:49:07.119Z,1031.28
2023-02-14T10:50:06.920Z,1031.27
2023-02-14T10:51:10.608Z,1031.27
2023-02-14T10:52:11.307Z,1031.26
2023-02-14T10:53:06.872Z,1031.29
2023-02-14T10:54:08.061Z,1031.23
2023-02-14T10:55:06.811Z,1031.24
2023-02-14T10:56:07.289Z,1031.24
2023-02-14T10:57:07.741Z,1031.26
2023-02-14T10:58:06.853Z,1031.23
2023-02-14T10:59:06.783Z,1031.22
2023-02-14T11:00:07.481Z,1031.17
2023-02-14T11:01:06.837Z,1031.22
2023-02-14T11:02:07.104Z,1031.24
2023-02-14T11:03:06.854Z,1031.19
2023-02-14T11:04:06.707Z,1031.19
2023-02-14T11:05:06.696Z,1031.15
2023-02-14T11:06:06.702Z,1031.14
2023-02-14T11:07:06.787Z,1031.11
2023-02-14T11:08:06.814Z,1031.14
2023-02-14T11:09:06.681Z,1031.11
2023-02-14T11:10:07.023Z,1031.17
2023-02-14T11:11:06.869Z,1031.14
2023-02-14T11:12:06.637Z,1031.15
2023-02-14T11:13:06.728Z,1031.11
2023-02-14T11:14:06.579Z,1031.09
2023-02-14T11:15:06.680Z,1031.04
2023-02-14T11:16:07.282Z,1031.11
2023-02-14T11:17:06.698Z,1031.07
2023-02-14T11:18:06.819Z,1031.03
2023-02-14T11:19:06.779Z,1031.02
2023-02-14T11:20:06.524Z,1031.05
2023-02-14T11:21:15.921Z,1031.02
2023-02-14T11:22:17.611Z,1031.06
2023-02-14T11:23:06.461Z,1031.07
2023-02-14T11:24:06.917Z,1030.99
2023-02-14T11:25:06.452Z,1031.00
2023-02-14T11:26:07.384Z,1030.90
2023-02-14T11:27:06.536Z,1030.97
2023-02-14T11:28:06.443Z,1030.95
2023-02-14T11:29:06.596Z,1030.94
2023-02-14T11:30:06.398Z,1030.92
2023-02-14T11:31:06.428Z,1030.91
2023-02-14T11:32:06.482Z,1030.89
2023-02-14T11:33:06.382Z,1030.90
2023-02-14T11:34:08.044Z,1030.88
2023-02-14T11:35:06.305Z,1030.81
2023-02-14T11:36:06.388Z,1030.87
2023-02-14T11:37:07.234Z,1030.85
2023-02-14T11:38:06.517Z,1030.74
2023-02-14T11:39:06.337Z,1030.72
2023-02-14T11:40:10.525Z,1030.78
2023-02-14T11:41:06.512Z,1030.71
2023-02-14T11:42:06.219Z,1030.70
2023-02-14T11:43:13.964Z,1030.78
2023-02-14T11:44:07.380Z,1030.72
2023-02-14T11:45:06.889Z,1030.68
2023-02-14T11:46:06.445Z,1030.65
2023-02-14T11:47:07.850Z,1030.54
2023-02-14T11:48:06.390Z,1030.56
2023-02-14T11:49:06.808Z,1030.59
2023-02-14T11:50:06.401Z,1030.55
2023-02-14T11:51:06.386Z,1030.60
2023-02-14T11:52:06.360Z,1030.55
2023-02-14T11:53:06.340Z,1030.52
2023-02-14T11:54:06.832Z,1030.50
2023-02-14T11:55:09.833Z,1030.45
2023-02-14T11:56:07.324Z,1030.43
2023-02-14T11:57:06.054Z,1030.44
2023-02-14T11:58:06.028Z,1030.42
2023-02-14T11:59:05.995Z,1030.43
2023-02-14T12:00:05.994Z,1030.36
2023-02-14T12:01:06.802Z,1030.41
2023-02-14T12:02:06.286Z,1030.43
2023-02-14T12:03:06.704Z,1030.42
2023-02-14T12:04:05.964Z,1030.35
2023-02-14T12:05:05.938Z,1030.36
2023-02-14T12:06:05.927Z,1030.35
2023-02-14T12:07:06.909Z,1030.32
2023-02-14T12:08:05.949Z,1030.30
2023-02-14T12:09:06.039Z,1030.28
2023-02-14T12:10:05.868Z,1030.33